Advocate Harbour, Canada
Current Conditions -  °F | °C
As of 5:00 AM on Sunday 21 Dec 2014 (Local Time) from CYZX Reporting Station
Overcast Overcast  
Wind Chill: 25°   Ceiling: 2100
Heat Index: 30°   Visibility: 15mi
Dew Point: 25°   Wind: 5mph
Humidity: 80%   Direction: 110°ESE
Pressure: 30.35"   Gusts: NA
Location:  45.33°N, 64.78°W
Report Text: CYZX 210900Z 11004KT 15SM OVC021 M01/M04 A3035 RMK SC8 WNDY HILL 12003KT SLP278
Loading
Personal Weather Stations






























Interactive Weather Map New forecast layout! Learn more

10-Day Weather Forecast

Advertisements
Track Severe Weather on mobile